createdAt,value
2018-10-01T00:00:40.353Z,0
2018-10-01T00:01:41.789Z,0
2018-10-01T00:02:43.236Z,0
2018-10-01T00:03:44.876Z,0
2018-10-01T00:04:46.303Z,0
2018-10-01T00:05:47.761Z,0
2018-10-01T00:06:49.371Z,0
2018-10-01T00:07:50.824Z,0
2018-10-01T00:08:52.284Z,0
2018-10-01T00:09:53.901Z,0
2018-10-01T00:10:55.353Z,0
2018-10-01T00:11:56.778Z,0
2018-10-01T00:12:58.415Z,0
2018-10-01T00:13:59.863Z,0
2018-10-01T00:15:01.455Z,0
2018-10-01T00:16:03.258Z,0
2018-10-01T00:17:04.732Z,0
2018-10-01T00:18:06.196Z,0
2018-10-01T00:19:07.919Z,0
2018-10-01T00:20:09.359Z,0
2018-10-01T00:21:10.805Z,0
2018-10-01T00:22:12.415Z,0
2018-10-01T00:23:13.886Z,0
2018-10-01T00:24:15.721Z,0
2018-10-01T00:25:17.379Z,0
2018-10-01T00:26:19.076Z,0
2018-10-01T00:27:20.746Z,0
2018-10-01T00:28:22.250Z,0
2018-10-01T00:29:23.982Z,0
2018-10-01T00:30:26.379Z,0
2018-10-01T00:31:27.805Z,0
2018-10-01T00:32:29.512Z,0
2018-10-01T00:33:30.942Z,0
2018-10-01T00:34:32.422Z,0
2018-10-01T00:35:34.061Z,0
2018-10-01T00:36:35.501Z,0
2018-10-01T00:37:37.368Z,0
2018-10-01T00:38:38.953Z,0
2018-10-01T00:39:40.444Z,0
2018-10-01T00:40:41.888Z,0
2018-10-01T00:41:43.479Z,0
2018-10-01T00:42:44.932Z,0
2018-10-01T00:43:46.399Z,0
2018-10-01T00:44:48.049Z,0
2018-10-01T00:45:49.522Z,0
2018-10-01T00:46:51.012Z,0
2018-10-01T00:47:52.787Z,0
2018-10-01T00:48:54.224Z,0
2018-10-01T00:49:55.854Z,0
2018-10-01T00:50:57.290Z,0
2018-10-01T00:51:58.788Z,0
2018-10-01T00:53:00.378Z,0
2018-10-01T00:54:01.822Z,0
2018-10-01T00:55:03.348Z,0
2018-10-01T00:56:05.094Z,0
2018-10-01T00:57:06.563Z,0
2018-10-01T00:58:08.170Z,0
2018-10-01T00:59:09.668Z,0
2018-10-01T01:00:11.233Z,0
2018-10-01T01:01:12.705Z,0
2018-10-01T01:02:14.369Z,0
2018-10-01T01:03:15.822Z,0
2018-10-01T01:04:17.468Z,0
2018-10-01T01:05:18.955Z,0
2018-10-01T01:06:20.420Z,0
2018-10-01T01:07:22.211Z,0
2018-10-01T01:08:23.707Z,0
2018-10-01T01:09:25.162Z,0
2018-10-01T01:10:26.948Z,0
2018-10-01T01:11:28.467Z,0
2018-10-01T01:12:29.976Z,0
2018-10-01T01:13:31.645Z,0
2018-10-01T01:14:33.100Z,0
2018-10-01T01:15:34.585Z,0
2018-10-01T01:16:36.245Z,0
2018-10-01T01:17:37.734Z,0
2018-10-01T01:18:39.201Z,0
2018-10-01T01:19:40.910Z,0
2018-10-01T01:20:42.392Z,0
2018-10-01T01:21:43.816Z,0
2018-10-01T01:22:45.382Z,0
2018-10-01T01:23:46.809Z,0
2018-10-01T01:24:48.253Z,0
2018-10-01T01:25:49.944Z,0
2018-10-01T01:26:51.372Z,0
2018-10-01T01:27:52.873Z,0
2018-10-01T01:28:54.497Z,0
2018-10-01T01:29:55.988Z,0
2018-10-01T01:30:57.429Z,0
2018-10-01T01:31:58.985Z,0
2018-10-01T01:33:00.414Z,0
2018-10-01T01:34:02.069Z,0
2018-10-01T01:35:03.545Z,0
2018-10-01T01:36:05.160Z,0
2018-10-01T01:37:06.603Z,0
2018-10-01T01:38:08.222Z,0
2018-10-01T01:39:09.654Z,0
2018-10-01T01:40:11.340Z,0
2018-10-01T01:41:12.786Z,0
2018-10-01T01:42:14.238Z,0
2018-10-01T01:43:15.839Z,0
2018-10-01T01:44:17.277Z,0
2018-10-01T01:45:18.711Z,0
2018-10-01T01:46:20.730Z,0
2018-10-01T01:47:22.181Z,0
2018-10-01T01:48:23.618Z,0
2018-10-01T01:49:25.317Z,0
2018-10-01T01:50:26.785Z,0
2018-10-01T01:51:28.513Z,0
2018-10-01T01:52:30.238Z,0
2018-10-01T01:53:31.694Z,0
2018-10-01T01:54:33.313Z,0
2018-10-01T01:55:34.735Z,0
2018-10-01T01:56:36.418Z,0
2018-10-01T01:57:37.891Z,0
2018-10-01T01:58:39.486Z,0
2018-10-01T01:59:40.931Z,0
2018-10-01T02:00:42.599Z,0
2018-10-01T02:01:44.032Z,0
2018-10-01T02:02:45.664Z,0
2018-10-01T02:03:47.132Z,0
2018-10-01T02:04:48.744Z,0
2018-10-01T02:05:50.213Z,0
2018-10-01T02:06:51.850Z,0
2018-10-01T02:07:53.335Z,0
2018-10-01T02:08:54.947Z,0
2018-10-01T02:09:56.438Z,0
2018-10-01T02:10:58.066Z,0
2018-10-01T02:11:59.576Z,0
2018-10-01T02:13:01.015Z,0
2018-10-01T02:14:02.737Z,0
2018-10-01T02:15:04.155Z,0
2018-10-01T02:16:05.606Z,0
2018-10-01T02:17:07.255Z,0
2018-10-01T02:18:09.089Z,0
2018-10-01T02:19:10.554Z,0
2018-10-01T02:20:12.221Z,0
2018-10-01T02:21:13.699Z,0
2018-10-01T02:22:15.129Z,0
2018-10-01T02:23:16.720Z,0
2018-10-01T02:24:18.181Z,0
2018-10-01T02:25:19.617Z,0
2018-10-01T02:26:21.273Z,0
2018-10-01T02:27:22.725Z,0
2018-10-01T02:28:24.160Z,0
2018-10-01T02:29:26.217Z,0
2018-10-01T02:30:28.034Z,0
2018-10-01T02:31:29.473Z,0
2018-10-01T02:32:31.127Z,0
2018-10-01T02:33:32.874Z,0
2018-10-01T02:34:34.413Z,0
2018-10-01T02:35:35.917Z,0
2018-10-01T02:36:37.498Z,0
2018-10-01T02:37:38.962Z,0
2018-10-01T02:38:40.574Z,0
2018-10-01T02:39:42.013Z,0
2018-10-01T02:40:43.649Z,0
2018-10-01T02:41:45.076Z,0
2018-10-01T02:42:46.757Z,0
2018-10-01T02:43:48.617Z,0
2018-10-01T02:44:50.239Z,0
2018-10-01T02:45:51.699Z,0
2018-10-01T02:46:53.363Z,0
2018-10-01T02:47:54.874Z,0
2018-10-01T02:48:56.427Z,0
2018-10-01T02:49:57.889Z,0
2018-10-01T02:50:59.536Z,0
2018-10-01T02:52:00.980Z,0
2018-10-01T02:53:02.417Z,0
2018-10-01T02:54:04.044Z,0
2018-10-01T02:55:05.436Z,0
2018-10-01T02:56:06.926Z,0
2018-10-01T02:57:08.561Z,0
2018-10-01T02:58:10.340Z,0
2018-10-01T02:59:12.176Z,0
2018-10-01T03:00:13.730Z,0
2018-10-01T03:01:15.173Z,0
2018-10-01T03:02:16.592Z,0
2018-10-01T03:03:18.233Z,0
2018-10-01T03:04:19.671Z,0
2018-10-01T03:05:21.138Z,0
2018-10-01T03:06:22.855Z,0
2018-10-01T03:07:24.286Z,0
2018-10-01T03:08:25.712Z,0
2018-10-01T03:09:27.286Z,0
2018-10-01T03:10:28.764Z,0
2018-10-01T03:11:30.398Z,0
2018-10-01T03:12:31.819Z,0
2018-10-01T03:13:33.272Z,0
2018-10-01T03:14:34.914Z,0
2018-10-01T03:15:36.348Z,0
2018-10-01T03:16:37.792Z,0
2018-10-01T03:17:39.399Z,0
2018-10-01T03:18:40.851Z,0
2018-10-01T03:19:42.501Z,0
2018-10-01T03:20:43.917Z,0
2018-10-01T03:21:45.592Z,0
2018-10-01T03:22:47.044Z,0
2018-10-01T03:23:48.670Z,0
2018-10-01T03:24:50.153Z,0
2018-10-01T03:25:51.809Z,0
2018-10-01T03:26:53.268Z,0
2018-10-01T03:27:54.856Z,0
2018-10-01T03:28:56.318Z,0
2018-10-01T03:29:57.956Z,0
2018-10-01T03:30:59.428Z,0
2018-10-01T03:32:01.033Z,0
2018-10-01T03:33:02.558Z,0
2018-10-01T03:34:04.001Z,0
2018-10-01T03:35:05.588Z,0
2018-10-01T03:36:07.224Z,0
2018-10-01T03:37:08.734Z,0
2018-10-01T03:38:10.236Z,0
2018-10-01T03:39:11.663Z,0
2018-10-01T03:40:13.434Z,0
2018-10-01T03:41:14.919Z,0
2018-10-01T03:42:16.454Z,0
2018-10-01T03:43:17.876Z,0
2018-10-01T03:44:19.488Z,0
2018-10-01T03:45:20.928Z,0
2018-10-01T03:46:22.594Z,0
2018-10-01T03:47:24.045Z,0
2018-10-01T03:48:25.465Z,0
2018-10-01T03:49:27.145Z,0
2018-10-01T03:50:28.648Z,0
2018-10-01T03:51:30.103Z,0
2018-10-01T03:52:31.658Z,0
2018-10-01T03:53:33.168Z,0
2018-10-01T03:54:34.650Z,0
2018-10-01T03:55:36.260Z,0
2018-10-01T03:56:37.727Z,0
2018-10-01T03:57:39.212Z,0
2018-10-01T03:58:40.948Z,0
2018-10-01T03:59:42.586Z,0
2018-10-01T04:00:44.282Z,0
2018-10-01T04:01:45.755Z,0
2018-10-01T04:02:47.304Z,0
2018-10-01T04:03:48.764Z,0
2018-10-01T04:04:50.491Z,0
2018-10-01T04:05:51.993Z,0
2018-10-01T04:06:54.028Z,0
2018-10-01T04:07:55.525Z,0
2018-10-01T04:08:57.229Z,0
2018-10-01T04:09:58.661Z,0
2018-10-01T04:11:00.275Z,0
2018-10-01T04:12:01.735Z,0
2018-10-01T04:13:03.391Z,0
2018-10-01T04:14:04.823Z,0
2018-10-01T04:15:06.492Z,0
2018-10-01T04:16:07.952Z,0
2018-10-01T04:17:09.515Z,0
2018-10-01T04:18:10.968Z,0
2018-10-01T04:19:12.418Z,0
2018-10-01T04:20:14.054Z,0
2018-10-01T04:21:15.482Z,0
2018-10-01T04:22:16.927Z,0
2018-10-01T04:23:18.536Z,0
2018-10-01T04:24:19.974Z,0
2018-10-01T04:25:21.654Z,0
2018-10-01T04:26:23.066Z,0
2018-10-01T04:27:24.963Z,0
2018-10-01T04:28:26.392Z,0
2018-10-01T04:29:27.861Z,0
2018-10-01T04:30:29.467Z,0
2018-10-01T04:31:30.877Z,0
2018-10-01T04:32:32.294Z,0
2018-10-01T04:33:33.965Z,0
2018-10-01T04:34:35.394Z,0
2018-10-01T04:35:37.082Z,0
2018-10-01T04:36:38.543Z,0
2018-10-01T04:37:40.135Z,0
2018-10-01T04:38:41.575Z,0
2018-10-01T04:39:43.214Z,0
2018-10-01T04:40:44.669Z,0
2018-10-01T04:41:46.340Z,0
2018-10-01T04:42:47.757Z,0
2018-10-01T04:43:49.411Z,0
2018-10-01T04:44:50.852Z,0
2018-10-01T04:45:52.496Z,0
2018-10-01T04:46:54.012Z,0
2018-10-01T04:47:55.584Z,0
2018-10-01T04:48:57.015Z,0
2018-10-01T04:49:58.439Z,0
2018-10-01T04:51:00.120Z,0
2018-10-01T04:52:01.550Z,0
2018-10-01T04:53:02.977Z,0
2018-10-01T04:54:04.635Z,0
2018-10-01T04:55:06.073Z,0
2018-10-01T04:56:07.718Z,0
2018-10-01T04:57:09.152Z,0
2018-10-01T04:58:10.842Z,0
2018-10-01T04:59:12.234Z,0
2018-10-01T05:00:13.682Z,0
2018-10-01T05:01:15.360Z,0
2018-10-01T05:02:16.833Z,0
2018-10-01T05:03:18.284Z,0
2018-10-01T05:04:19.890Z,0
2018-10-01T05:05:21.299Z,0
2018-10-01T05:06:22.713Z,0
2018-10-01T05:07:24.404Z,0
2018-10-01T05:08:25.820Z,0
2018-10-01T05:09:27.244Z,0
2018-10-01T05:10:29.088Z,0
2018-10-01T05:11:30.524Z,0
2018-10-01T05:12:32.173Z,0
2018-10-01T05:13:33.608Z,4
2018-10-01T05:14:35.052Z,0
2018-10-01T05:15:37.058Z,4
2018-10-01T05:16:38.522Z,4
2018-10-01T05:17:39.974Z,4
2018-10-01T05:18:41.630Z,4
2018-10-01T05:19:43.051Z,4
2018-10-01T05:20:44.707Z,8
2018-10-01T05:21:46.160Z,8
2018-10-01T05:22:47.791Z,4
2018-10-01T05:23:49.232Z,8
2018-10-01T05:24:50.847Z,8
2018-10-01T05:25:52.316Z,12
2018-10-01T05:26:53.999Z,12
2018-10-01T05:27:55.450Z,12
2018-10-01T05:28:57.047Z,16
2018-10-01T05:29:58.466Z,20
2018-10-01T05:30:59.919Z,16
2018-10-01T05:32:01.406Z,20
2018-10-01T05:33:02.857Z,20
2018-10-01T05:34:04.317Z,24
2018-10-01T05:35:05.909Z,28
2018-10-01T05:36:07.361Z,32
2018-10-01T05:37:09.084Z,36
2018-10-01T05:38:10.520Z,40
2018-10-01T05:39:12.059Z,44
2018-10-01T05:40:13.497Z,44
2018-10-01T05:41:15.015Z,52
2018-10-01T05:42:16.610Z,52
2018-10-01T05:43:18.057Z,52
2018-10-01T05:44:19.478Z,60
2018-10-01T05:45:21.150Z,64
2018-10-01T05:46:22.593Z,68
2018-10-01T05:47:24.186Z,68
2018-10-01T05:48:25.620Z,68
2018-10-01T05:49:27.119Z,72
2018-10-01T05:50:29.337Z,72
2018-10-01T05:51:30.759Z,68
2018-10-01T05:52:32.311Z,64
2018-10-01T05:53:33.701Z,64
2018-10-01T05:54:35.118Z,76
2018-10-01T05:55:37.466Z,80
2018-10-01T05:56:38.915Z,88
2018-10-01T05:57:40.427Z,88
2018-10-01T05:58:41.905Z,92
2018-10-01T05:59:43.350Z,92
2018-10-01T06:00:44.808Z,96
2018-10-01T06:01:46.424Z,96
2018-10-01T06:02:47.863Z,96
2018-10-01T06:03:49.286Z,100
2018-10-01T06:04:51.047Z,104
2018-10-01T06:05:52.431Z,108
2018-10-01T06:06:53.844Z,104
2018-10-01T06:07:55.896Z,108
2018-10-01T06:08:57.383Z,108
2018-10-01T06:09:58.792Z,112
2018-10-01T06:11:00.424Z,120
2018-10-01T06:12:01.959Z,124
2018-10-01T06:13:03.501Z,132
2018-10-01T06:14:04.971Z,140
2018-10-01T06:15:06.988Z,152
2018-10-01T06:16:08.425Z,152
2018-10-01T06:17:10.145Z,164
2018-10-01T06:18:11.581Z,168
2018-10-01T06:19:13.218Z,164
2018-10-01T06:20:14.681Z,180
2018-10-01T06:21:16.105Z,164
2018-10-01T06:22:17.691Z,156
2018-10-01T06:23:19.139Z,160
2018-10-01T06:24:20.577Z,168
2018-10-01T06:25:22.207Z,176
2018-10-01T06:26:23.697Z,184
2018-10-01T06:27:25.124Z,200
2018-10-01T06:28:26.750Z,208
2018-10-01T06:29:28.192Z,224
2018-10-01T06:30:29.609Z,232
2018-10-01T06:31:31.273Z,268
2018-10-01T06:32:32.794Z,288
2018-10-01T06:33:34.352Z,292
2018-10-01T06:34:35.810Z,320
2018-10-01T06:35:37.250Z,360
2018-10-01T06:36:38.907Z,372
2018-10-01T06:37:40.339Z,400
2018-10-01T06:38:41.829Z,416
2018-10-01T06:39:43.448Z,428
2018-10-01T06:40:44.927Z,452
2018-10-01T06:41:46.645Z,472
2018-10-01T06:42:48.115Z,436
2018-10-01T06:43:49.968Z,420
2018-10-01T06:44:51.444Z,416
2018-10-01T06:45:53.090Z,400
2018-10-01T06:46:54.535Z,360
2018-10-01T06:47:56.155Z,308
2018-10-01T06:48:57.593Z,288
2018-10-01T06:49:59.257Z,284
2018-10-01T06:51:00.786Z,292
2018-10-01T06:52:02.154Z,288
2018-10-01T06:53:03.813Z,292
2018-10-01T06:54:05.256Z,296
2018-10-01T06:55:06.685Z,304
2018-10-01T06:56:08.315Z,320
2018-10-01T06:57:09.816Z,360
2018-10-01T06:58:11.329Z,780
2018-10-01T06:59:12.887Z,1056
2018-10-01T07:00:14.354Z,884
2018-10-01T07:01:15.804Z,696
2018-10-01T07:02:17.365Z,612
2018-10-01T07:03:18.873Z,488
2018-10-01T07:04:20.489Z,332
2018-10-01T07:05:21.929Z,504
2018-10-01T07:06:23.302Z,404
2018-10-01T07:07:24.795Z,552
2018-10-01T07:08:26.224Z,632
2018-10-01T07:09:27.719Z,700
2018-10-01T07:10:29.341Z,700
2018-10-01T07:11:30.891Z,612
2018-10-01T07:12:32.224Z,504
2018-10-01T07:13:33.891Z,464
2018-10-01T07:14:35.317Z,436
2018-10-01T07:15:36.791Z,420
2018-10-01T07:16:38.383Z,428
2018-10-01T07:17:39.809Z,460
2018-10-01T07:18:41.457Z,440
2018-10-01T07:19:42.886Z,400
2018-10-01T07:20:44.567Z,388
2018-10-01T07:21:45.977Z,448
2018-10-01T07:22:47.607Z,652
2018-10-01T07:23:49.010Z,1000
2018-10-01T07:24:50.530Z,1116
2018-10-01T07:25:51.952Z,980
2018-10-01T07:26:53.383Z,664
2018-10-01T07:27:55.045Z,496
2018-10-01T07:28:56.465Z,452
2018-10-01T07:29:57.892Z,456
2018-10-01T07:30:59.589Z,616
2018-10-01T07:32:01.040Z,928
2018-10-01T07:33:02.480Z,1124
2018-10-01T07:34:04.087Z,1208
2018-10-01T07:35:05.515Z,1196
2018-10-01T07:36:06.949Z,1064
2018-10-01T07:37:08.645Z,856
2018-10-01T07:38:10.044Z,676
2018-10-01T07:39:11.715Z,540
2018-10-01T07:40:13.538Z,608
2018-10-01T07:41:15.197Z,788
2018-10-01T07:42:16.609Z,932
2018-10-01T07:43:18.031Z,944
2018-10-01T07:44:19.678Z,836
2018-10-01T07:45:21.323Z,664
2018-10-01T07:46:22.777Z,536
2018-10-01T07:47:24.278Z,472
2018-10-01T07:48:25.681Z,420
2018-10-01T07:49:27.307Z,408
2018-10-01T07:50:28.766Z,408
2018-10-01T07:51:30.197Z,424
2018-10-01T07:52:31.604Z,416
2018-10-01T07:53:33.294Z,480
2018-10-01T07:54:34.839Z,532
2018-10-01T07:55:36.374Z,480
2018-10-01T07:56:37.814Z,452
2018-10-01T07:57:39.461Z,456
2018-10-01T07:58:40.896Z,472
2018-10-01T07:59:42.651Z,500
2018-10-01T08:00:44.075Z,504
2018-10-01T08:01:45.643Z,488
2018-10-01T08:02:47.082Z,444
2018-10-01T08:03:48.732Z,492
2018-10-01T08:04:50.116Z,500
2018-10-01T08:05:51.613Z,500
2018-10-01T08:06:53.051Z,508
2018-10-01T08:07:54.745Z,520
2018-10-01T08:08:56.142Z,528
2018-10-01T08:09:57.771Z,532
2018-10-01T08:10:59.209Z,540
2018-10-01T08:12:00.890Z,544
2018-10-01T08:13:02.334Z,548
2018-10-01T08:14:03.999Z,548
2018-10-01T08:15:05.408Z,548
2018-10-01T08:16:07.049Z,560
2018-10-01T08:17:08.506Z,564
2018-10-01T08:18:09.966Z,572
2018-10-01T08:19:11.549Z,584
2018-10-01T08:20:13.046Z,592
2018-10-01T08:21:14.318Z,604
2018-10-01T08:22:15.872Z,604
2018-10-01T08:23:17.285Z,604
2018-10-01T08:24:18.943Z,596
2018-10-01T08:25:20.346Z,588
2018-10-01T08:26:21.757Z,592
2018-10-01T08:27:23.286Z,616
2018-10-01T08:28:24.705Z,660
2018-10-01T08:29:26.142Z,760
2018-10-01T08:30:27.593Z,784
2018-10-01T08:31:29.012Z,720
2018-10-01T08:32:30.398Z,672
2018-10-01T08:33:31.909Z,660
2018-10-01T08:34:33.340Z,640
2018-10-01T08:35:34.869Z,812
2018-10-01T08:36:36.228Z,940
2018-10-01T08:37:37.644Z,968
2018-10-01T08:38:39.175Z,884
2018-10-01T08:39:40.533Z,816
2018-10-01T08:40:41.949Z,896
2018-10-01T08:41:43.357Z,984
2018-10-01T08:42:44.776Z,900
2018-10-01T08:43:46.311Z,992
2018-10-01T08:44:47.718Z,796
2018-10-01T08:45:49.161Z,984
2018-10-01T08:46:50.635Z,852
2018-10-01T08:47:52.036Z,1016
2018-10-01T08:48:53.474Z,1068
2018-10-01T08:49:54.993Z,1312
2018-10-01T08:50:56.362Z,1312
2018-10-01T08:51:57.789Z,1400
2018-10-01T08:52:59.310Z,1796
2018-10-01T08:54:00.682Z,1056
2018-10-01T08:55:02.087Z,628
2018-10-01T08:56:03.541Z,660
2018-10-01T08:57:04.904Z,1144
2018-10-01T08:58:06.711Z,1344
2018-10-01T08:59:08.474Z,952
2018-10-01T09:00:09.849Z,2496
2018-10-01T09:01:11.483Z,1228
2018-10-01T09:02:12.859Z,1636
2018-10-01T09:03:14.235Z,1600
2018-10-01T09:04:15.735Z,1476
2018-10-01T09:05:17.153Z,1312
2018-10-01T09:06:18.612Z,1540
2018-10-01T09:07:20.022Z,792
2018-10-01T09:08:21.553Z,720
2018-10-01T09:09:22.905Z,1132
2018-10-01T09:10:24.352Z,1108
2018-10-01T09:11:25.795Z,828
2018-10-01T09:12:27.180Z,1692
2018-10-01T09:13:28.698Z,936
2018-10-01T09:14:30.183Z,864
2018-10-01T09:15:31.477Z,1312
2018-10-01T09:16:33.021Z,1460
2018-10-01T09:17:34.446Z,1920
2018-10-01T09:18:35.834Z,2180
2018-10-01T09:19:37.343Z,1392
2018-10-01T09:20:38.767Z,904
2018-10-01T09:21:40.259Z,824
2018-10-01T09:22:41.628Z,988
2018-10-01T09:23:43.040Z,1256
2018-10-01T09:24:44.509Z,860
2018-10-01T09:25:45.914Z,1096
2018-10-01T09:26:47.323Z,1000
2018-10-01T09:27:48.865Z,1264
2018-10-01T09:28:50.270Z,1128
2018-10-01T09:29:51.746Z,1492
2018-10-01T09:30:53.168Z,1108
2018-10-01T09:31:54.629Z,1096
2018-10-01T09:32:56.035Z,2012
2018-10-01T09:33:57.508Z,1088
2018-10-01T09:34:58.963Z,976
2018-10-01T09:36:00.387Z,932
2018-10-01T09:37:01.795Z,2168
2018-10-01T09:38:03.296Z,2044
2018-10-01T09:39:04.680Z,1428
2018-10-01T09:40:06.164Z,1696
2018-10-01T09:41:07.558Z,1528
2018-10-01T09:42:09.075Z,1820
2018-10-01T09:43:10.446Z,2376
2018-10-01T09:44:11.860Z,1524
2018-10-01T09:45:13.321Z,1092
2018-10-01T09:46:14.824Z,1224
2018-10-01T09:47:16.209Z,1132
2018-10-01T09:48:17.879Z,1680
2018-10-01T09:49:19.288Z,2132
2018-10-01T09:50:20.778Z,1636
2018-10-01T09:51:22.183Z,1672
2018-10-01T09:52:23.658Z,1460
2018-10-01T09:53:25.048Z,1740
2018-10-01T09:54:26.516Z,2052
2018-10-01T09:55:27.932Z,2468
2018-10-01T09:56:29.428Z,3272
2018-10-01T09:57:30.818Z,3268
2018-10-01T09:58:32.501Z,3768
2018-10-01T09:59:33.895Z,2244
2018-10-01T10:00:35.369Z,1400
2018-10-01T10:01:36.777Z,1260
2018-10-01T10:02:38.315Z,1492
2018-10-01T10:03:39.660Z,1560
2018-10-01T10:04:41.133Z,1328
2018-10-01T10:05:42.535Z,1264
2018-10-01T10:06:44.012Z,1224
2018-10-01T10:07:45.499Z,1484
2018-10-01T10:08:47.099Z,1404
2018-10-01T10:09:48.509Z,980
2018-10-01T10:10:49.977Z,944
2018-10-01T10:11:51.393Z,1188
2018-10-01T10:12:52.859Z,1756
2018-10-01T10:13:54.273Z,2180
2018-10-01T10:14:55.795Z,2472
2018-10-01T10:15:57.163Z,2908
2018-10-01T10:16:59.864Z,2636
2018-10-01T10:18:02.001Z,2580
2018-10-01T10:19:03.550Z,2296
2018-10-01T10:20:04.982Z,1680
2018-10-01T10:21:06.430Z,1048
2018-10-01T10:22:07.972Z,1056
2018-10-01T10:23:09.518Z,992
2018-10-01T10:24:10.929Z,1140
2018-10-01T10:25:12.343Z,1684
2018-10-01T10:26:13.945Z,1648
2018-10-01T10:27:15.282Z,1396
2018-10-01T10:28:16.664Z,1168
2018-10-01T10:29:18.161Z,780
2018-10-01T10:30:19.581Z,828
2018-10-01T10:31:21.603Z,1252
2018-10-01T10:32:23.114Z,2624
2018-10-01T10:33:24.524Z,3024
2018-10-01T10:34:25.980Z,1572
2018-10-01T10:35:27.437Z,868
2018-10-01T10:36:28.813Z,664
2018-10-01T10:37:30.304Z,700
2018-10-01T10:38:31.772Z,520
2018-10-01T10:39:33.240Z,288
2018-10-01T10:40:34.602Z,336
2018-10-01T10:41:36.116Z,708
2018-10-01T10:42:37.475Z,1440
2018-10-01T10:43:38.871Z,2304
2018-10-01T10:44:40.398Z,2308
2018-10-01T10:45:41.792Z,1972
2018-10-01T10:46:43.200Z,1324
2018-10-01T10:47:44.701Z,1124
2018-10-01T10:48:46.106Z,796
2018-10-01T10:49:47.512Z,692
2018-10-01T10:50:49.022Z,676
2018-10-01T10:51:50.432Z,540
2018-10-01T10:52:51.837Z,652
2018-10-01T10:53:53.342Z,624
2018-10-01T10:54:54.754Z,616
2018-10-01T10:55:56.261Z,600
2018-10-01T10:56:58.076Z,608
2018-10-01T10:57:59.514Z,1268
2018-10-01T10:59:00.924Z,2224
2018-10-01T11:00:02.369Z,2460
2018-10-01T11:01:03.778Z,3220
2018-10-01T11:02:05.328Z,3380
2018-10-01T11:03:06.686Z,2932
2018-10-01T11:04:08.367Z,2692
2018-10-01T11:05:09.776Z,2972
2018-10-01T11:06:11.244Z,2764
2018-10-01T11:07:12.716Z,2148
2018-10-01T11:08:14.177Z,1008
2018-10-01T11:09:15.533Z,308
2018-10-01T11:10:16.939Z,156
2018-10-01T11:11:18.459Z,124
2018-10-01T11:12:19.864Z,168
2018-10-01T11:13:21.272Z,188
2018-10-01T11:14:22.818Z,212
2018-10-01T11:15:24.224Z,236
2018-10-01T11:16:25.674Z,284
2018-10-01T11:17:27.172Z,340
2018-10-01T11:18:28.635Z,416
2018-10-01T11:19:30.200Z,668
2018-10-01T11:20:31.678Z,1040
2018-10-01T11:21:33.092Z,1696
2018-10-01T11:22:34.521Z,2272
2018-10-01T11:23:35.907Z,2544
2018-10-01T11:24:37.310Z,2632
2018-10-01T11:25:38.829Z,2620
2018-10-01T11:26:40.189Z,2308
2018-10-01T11:27:41.655Z,2008
2018-10-01T11:28:43.154Z,1720
2018-10-01T11:29:44.551Z,2452
2018-10-01T11:30:45.958Z,2456
2018-10-01T11:31:47.532Z,2184
2018-10-01T11:32:48.826Z,1916
2018-10-01T11:33:50.237Z,1692
2018-10-01T11:34:51.844Z,1472
2018-10-01T11:35:53.167Z,1308
2018-10-01T11:36:54.680Z,1188
2018-10-01T11:37:56.098Z,960
2018-10-01T11:38:57.556Z,784
2018-10-01T11:39:58.945Z,796
2018-10-01T11:41:00.850Z,768
2018-10-01T11:42:02.259Z,784
2018-10-01T11:43:03.715Z,1024
2018-10-01T11:44:05.123Z,1532
2018-10-01T11:45:06.664Z,1912
2018-10-01T11:46:08.017Z,1996
2018-10-01T11:47:09.476Z,1240
2018-10-01T11:48:10.885Z,720
2018-10-01T11:49:12.558Z,484
2018-10-01T11:50:13.972Z,340
2018-10-01T11:51:15.478Z,144
2018-10-01T11:52:16.852Z,188
2018-10-01T11:53:18.323Z,252
2018-10-01T11:54:19.764Z,216
2018-10-01T11:55:21.143Z,192
2018-10-01T11:56:22.640Z,180
2018-10-01T11:57:24.101Z,216
2018-10-01T11:58:25.510Z,232
2018-10-01T11:59:26.962Z,232
2018-10-01T12:00:28.384Z,272
2018-10-01T12:01:29.759Z,388
2018-10-01T12:02:31.286Z,568
2018-10-01T12:03:32.711Z,692
2018-10-01T12:04:34.103Z,760
2018-10-01T12:05:35.518Z,852
2018-10-01T12:06:37.052Z,1052
2018-10-01T12:07:38.457Z,1260
2018-10-01T12:08:39.864Z,1500
2018-10-01T12:09:41.461Z,1716
2018-10-01T12:10:42.781Z,1992
2018-10-01T12:11:44.260Z,2304
2018-10-01T12:12:45.668Z,2028
2018-10-01T12:13:47.343Z,1764
2018-10-01T12:14:48.751Z,1684
2018-10-01T12:15:50.388Z,2188
2018-10-01T12:16:51.631Z,2480
2018-10-01T12:17:53.042Z,2396
2018-10-01T12:18:54.543Z,2020
2018-10-01T12:19:56.000Z,1440
2018-10-01T12:20:57.631Z,1460
2018-10-01T12:21:59.093Z,1036
2018-10-01T12:23:00.507Z,628
2018-10-01T12:24:01.911Z,676
2018-10-01T12:25:03.323Z,588
2018-10-01T12:26:04.802Z,600
2018-10-01T12:27:06.272Z,704
2018-10-01T12:28:07.614Z,732
2018-10-01T12:29:09.219Z,492
2018-10-01T12:30:10.550Z,456
2018-10-01T12:31:11.954Z,480
2018-10-01T12:32:13.467Z,476
2018-10-01T12:33:14.909Z,860
2018-10-01T12:34:16.279Z,1536
2018-10-01T12:35:17.770Z,1692
2018-10-01T12:36:19.174Z,1736
2018-10-01T12:37:20.580Z,1728
2018-10-01T12:38:22.099Z,1360
2018-10-01T12:39:23.513Z,1148
2018-10-01T12:40:24.903Z,804
2018-10-01T12:41:26.837Z,756
2018-10-01T12:42:28.293Z,716
2018-10-01T12:43:29.660Z,1348
2018-10-01T12:44:31.143Z,824
2018-10-01T12:45:32.601Z,444
2018-10-01T12:46:34.025Z,468
2018-10-01T12:47:36.211Z,656
2018-10-01T12:48:37.726Z,412
2018-10-01T12:49:39.135Z,564
2018-10-01T12:50:40.993Z,420
2018-10-01T12:51:42.476Z,432
2018-10-01T12:52:43.897Z,520
2018-10-01T12:53:45.301Z,456
2018-10-01T12:54:46.782Z,616
2018-10-01T12:55:48.198Z,608
2018-10-01T12:56:49.666Z,636
2018-10-01T12:57:51.066Z,456
2018-10-01T12:58:52.539Z,388
2018-10-01T12:59:54.327Z,404
2018-10-01T13:00:56.111Z,460
2018-10-01T13:01:57.518Z,896
2018-10-01T13:02:59.122Z,1152
2018-10-01T13:04:00.529Z,1496
2018-10-01T13:05:02.492Z,1456
2018-10-01T13:06:03.806Z,1280
2018-10-01T13:07:05.295Z,1036
2018-10-01T13:08:06.701Z,800
2018-10-01T13:09:08.553Z,528
2018-10-01T13:10:09.961Z,292
2018-10-01T13:11:11.370Z,180
2018-10-01T13:12:12.956Z,200
2018-10-01T13:13:14.322Z,340
2018-10-01T13:14:15.719Z,612
2018-10-01T13:15:17.227Z,1196
2018-10-01T13:16:18.635Z,1916
2018-10-01T13:17:20.110Z,2064
2018-10-01T13:18:21.543Z,1704
2018-10-01T13:19:23.032Z,1344
2018-10-01T13:20:24.827Z,1204
2018-10-01T13:21:26.279Z,1036
2018-10-01T13:22:27.684Z,788
2018-10-01T13:23:29.158Z,632
2018-10-01T13:24:31.150Z,692
2018-10-01T13:25:32.653Z,892
2018-10-01T13:26:34.061Z,1216
2018-10-01T13:27:35.464Z,1160
2018-10-01T13:28:36.976Z,960
2018-10-01T13:29:38.383Z,988
2018-10-01T13:30:39.806Z,916
2018-10-01T13:31:41.296Z,692
2018-10-01T13:32:42.710Z,540
2018-10-01T13:33:44.108Z,500
2018-10-01T13:34:45.619Z,508
2018-10-01T13:35:47.025Z,456
2018-10-01T13:36:48.517Z,440
2018-10-01T13:37:50.026Z,444
2018-10-01T13:38:51.355Z,504
2018-10-01T13:39:52.820Z,536
2018-10-01T13:40:54.235Z,628
2018-10-01T13:41:55.679Z,584
2018-10-01T13:42:57.191Z,684
2018-10-01T13:43:58.594Z,664
2018-10-01T13:45:00.001Z,632
2018-10-01T13:46:01.464Z,580
2018-10-01T13:47:02.872Z,540
2018-10-01T13:48:04.323Z,548
2018-10-01T13:49:05.677Z,656
2018-10-01T13:50:07.079Z,608
2018-10-01T13:51:08.667Z,648
2018-10-01T13:52:10.091Z,588
2018-10-01T13:53:11.552Z,532
2018-10-01T13:54:13.012Z,540
2018-10-01T13:55:14.436Z,444
2018-10-01T13:56:16.224Z,364
2018-10-01T13:57:17.625Z,328
2018-10-01T13:58:19.217Z,332
2018-10-01T13:59:20.523Z,308
2018-10-01T14:00:21.929Z,324
2018-10-01T14:01:23.537Z,324
2018-10-01T14:02:24.885Z,324
2018-10-01T14:03:26.288Z,320
2018-10-01T14:04:28.185Z,324
2018-10-01T14:05:29.592Z,324
2018-10-01T14:06:30.995Z,328
2018-10-01T14:07:32.603Z,316
2018-10-01T14:08:34.335Z,308
2018-10-01T14:09:35.738Z,384
2018-10-01T14:10:37.268Z,720
2018-10-01T14:11:38.671Z,908
2018-10-01T14:12:40.075Z,844
2018-10-01T14:13:41.662Z,940
2018-10-01T14:14:43.002Z,996
2018-10-01T14:15:44.415Z,780
2018-10-01T14:16:45.909Z,436
2018-10-01T14:17:47.313Z,392
2018-10-01T14:18:48.791Z,556
2018-10-01T14:19:50.730Z,924
2018-10-01T14:20:52.943Z,880
2018-10-01T14:21:54.347Z,744
2018-10-01T14:22:55.754Z,768
2018-10-01T14:23:57.220Z,828
2018-10-01T14:24:58.668Z,816